createdAt,value
2023-01-22T00:01:29.355Z,78.59
2023-01-22T00:04:09.616Z,79.00
2023-01-22T00:06:46.261Z,78.30
2023-01-22T00:09:16.369Z,78.04
2023-01-22T00:11:43.045Z,79.05
2023-01-22T00:14:24.742Z,78.93
2023-01-22T00:16:53.919Z,78.65
2023-01-22T00:19:29.912Z,78.56
2023-01-22T00:22:01.883Z,77.86
2023-01-22T00:24:46.738Z,77.71
2023-01-22T00:27:35.973Z,77.83
2023-01-22T00:33:05.577Z,76.86
2023-01-22T00:35:56.694Z,77.42
2023-01-22T00:38:31.486Z,76.73
2023-01-22T00:41:11.976Z,77.43
2023-01-22T00:43:51.778Z,77.74
2023-01-22T00:46:22.266Z,76.91
2023-01-22T00:48:50.319Z,77.24
2023-01-22T00:51:20.435Z,77.50
2023-01-22T00:53:56.112Z,77.03
2023-01-22T00:56:32.640Z,76.87
2023-01-22T00:59:21.303Z,76.08
2023-01-22T01:02:07.038Z,76.46
2023-01-22T01:04:44.869Z,75.85
2023-01-22T01:07:12.163Z,76.27
2023-01-22T01:09:42.161Z,76.51
2023-01-22T01:12:32.641Z,76.79
2023-01-22T01:15:04.177Z,77.32
2023-01-22T01:17:41.811Z,76.88
2023-01-22T01:30:33.664Z,76.69
2023-01-22T01:33:02.440Z,77.30
2023-01-22T01:36:03.028Z,76.88
2023-01-22T01:38:53.237Z,76.81
2023-01-22T01:41:44.594Z,76.99
2023-01-22T01:44:20.469Z,76.51
2023-01-22T01:47:23.559Z,76.95
2023-01-22T01:50:02.164Z,76.57
2023-01-22T01:52:29.199Z,76.36
2023-01-22T01:55:17.841Z,75.40
2023-01-22T01:57:44.699Z,75.03
2023-01-22T02:00:25.762Z,74.83
2023-01-22T02:03:12.573Z,74.60
2023-01-22T02:05:40.052Z,74.62
2023-01-22T02:08:07.747Z,74.19
2023-01-22T02:10:34.964Z,74.09
2023-01-22T02:13:16.728Z,74.73
2023-01-22T02:16:16.516Z,75.66
2023-01-22T02:18:46.244Z,75.52
2023-01-22T02:21:36.785Z,75.62
2023-01-22T02:24:08.480Z,76.33
2023-01-22T02:26:40.999Z,76.20
2023-01-22T02:32:01.165Z,76.66
2023-01-22T02:34:28.005Z,76.79
2023-01-22T02:37:13.169Z,76.62
2023-01-22T02:39:46.203Z,75.65
2023-01-22T02:42:15.192Z,75.85
2023-01-22T02:44:44.057Z,74.23
2023-01-22T02:47:12.052Z,73.76
2023-01-22T02:49:39.096Z,74.17
2023-01-22T02:52:16.578Z,73.34
2023-01-22T02:54:47.293Z,74.36
2023-01-22T02:57:13.999Z,74.13
2023-01-22T02:59:43.891Z,73.73
2023-01-22T03:02:11.539Z,74.17
2023-01-22T03:04:38.646Z,74.05
2023-01-22T03:07:06.032Z,74.39
2023-01-22T03:09:32.757Z,73.92
2023-01-22T03:12:00.529Z,73.61
2023-01-22T03:14:51.462Z,73.86
2023-01-22T03:17:46.759Z,74.31
2023-01-22T03:20:34.841Z,74.93
2023-01-22T03:23:04.508Z,74.77
2023-01-22T03:25:35.036Z,75.22
2023-01-22T03:28:16.887Z,75.05
2023-01-22T03:30:49.882Z,73.88
2023-01-22T03:33:16.694Z,73.53
2023-01-22T03:35:44.771Z,72.50
2023-01-22T03:38:16.422Z,71.99
2023-01-22T03:40:43.753Z,72.85
2023-01-22T03:43:10.532Z,71.92
2023-01-22T03:45:40.562Z,71.94
2023-01-22T03:48:18.672Z,71.41
2023-01-22T03:50:47.515Z,71.25
2023-01-22T03:53:16.784Z,70.90
2023-01-22T03:55:43.484Z,70.13
2023-01-22T03:58:10.753Z,70.93
2023-01-22T04:00:37.564Z,71.12
2023-01-22T04:03:06.425Z,70.92
2023-01-22T04:05:38.695Z,70.25
2023-01-22T04:08:06.014Z,69.97
2023-01-22T04:10:34.898Z,69.65
2023-01-22T04:13:03.356Z,69.04
2023-01-22T04:15:29.917Z,69.52
2023-01-22T04:17:58.028Z,69.42
2023-01-22T04:20:42.542Z,68.69
2023-01-22T04:23:34.610Z,68.75
2023-01-22T04:26:02.385Z,68.79
2023-01-22T04:28:30.057Z,69.13
2023-01-22T04:30:58.547Z,68.59
2023-01-22T04:33:36.176Z,68.87
2023-01-22T04:36:08.788Z,68.71
2023-01-22T04:38:35.564Z,69.04
2023-01-22T04:41:02.822Z,68.79
2023-01-22T04:43:29.721Z,68.54
2023-01-22T04:45:56.468Z,68.21
2023-01-22T04:48:28.577Z,68.97
2023-01-22T04:50:55.129Z,69.32
2023-01-22T04:53:24.482Z,68.95
2023-01-22T04:55:51.152Z,68.23
2023-01-22T04:58:18.011Z,68.03
2023-01-22T05:00:44.598Z,68.14
2023-01-22T05:03:15.572Z,68.49
2023-01-22T05:05:42.186Z,68.25
2023-01-22T05:08:09.185Z,68.75
2023-01-22T05:10:36.900Z,68.41
2023-01-22T05:13:07.010Z,68.34
2023-01-22T05:15:34.385Z,68.63
2023-01-22T05:18:06.857Z,68.97
2023-01-22T05:20:35.924Z,69.08
2023-01-22T05:23:02.627Z,68.22
2023-01-22T05:25:30.855Z,68.33
2023-01-22T05:27:58.992Z,67.85
2023-01-22T05:30:52.227Z,68.89
2023-01-22T05:33:45.296Z,68.29
2023-01-22T05:36:13.564Z,67.92
2023-01-22T05:38:40.198Z,67.93
2023-01-22T05:41:07.909Z,68.59
2023-01-22T05:43:38.426Z,67.80
2023-01-22T05:46:07.884Z,68.27
2023-01-22T05:48:53.348Z,67.44
2023-01-22T05:51:24.038Z,68.45
2023-01-22T05:53:52.038Z,68.38
2023-01-22T05:56:18.770Z,68.76
2023-01-22T05:58:45.910Z,68.00
2023-01-22T06:01:13.055Z,68.41
2023-01-22T06:03:43.902Z,68.80
2023-01-22T06:06:12.998Z,68.44
2023-01-22T06:08:40.703Z,68.37
2023-01-22T06:11:09.225Z,68.06
2023-01-22T06:13:37.153Z,67.66
2023-01-22T06:16:24.112Z,68.19
2023-01-22T06:18:59.022Z,68.34
2023-01-22T06:21:29.495Z,68.88
2023-01-22T06:23:56.782Z,68.36
2023-01-22T06:26:24.265Z,67.78
2023-01-22T06:28:51.784Z,68.02
2023-01-22T06:31:19.005Z,68.48
2023-01-22T06:33:46.186Z,68.64
2023-01-22T06:36:14.534Z,68.11
2023-01-22T06:38:42.714Z,67.86
2023-01-22T06:41:14.002Z,68.55
2023-01-22T06:43:42.827Z,68.59
2023-01-22T06:46:09.984Z,69.10
2023-01-22T06:49:01.602Z,69.57
2023-01-22T06:51:29.597Z,69.36
2023-01-22T06:53:56.425Z,69.41
2023-01-22T06:56:23.443Z,69.51
2023-01-22T06:58:50.963Z,69.04
2023-01-22T07:01:20.128Z,68.55
2023-01-22T07:03:46.850Z,67.67
2023-01-22T07:06:13.539Z,67.44
2023-01-22T07:08:41.260Z,67.87
2023-01-22T07:11:08.119Z,67.06
2023-01-22T07:13:35.007Z,67.34
2023-01-22T07:16:03.743Z,67.74
2023-01-22T07:18:30.868Z,67.47
2023-01-22T07:21:01.337Z,67.00
2023-01-22T07:23:28.745Z,66.97
2023-01-22T07:25:58.355Z,67.15
2023-01-22T07:28:26.542Z,66.67
2023-01-22T07:30:55.950Z,67.20
2023-01-22T07:33:22.735Z,67.17
2023-01-22T07:35:59.077Z,67.75
2023-01-22T07:38:31.070Z,67.84
2023-01-22T07:41:01.643Z,67.23
2023-01-22T07:43:28.590Z,67.38
2023-01-22T07:45:58.073Z,67.03
2023-01-22T07:48:24.794Z,68.05
2023-01-22T07:50:51.623Z,67.50
2023-01-22T07:53:18.483Z,67.77
2023-01-22T07:55:48.133Z,67.78
2023-01-22T07:58:15.010Z,67.22
2023-01-22T08:00:41.817Z,67.77
2023-01-22T08:03:10.644Z,67.39
2023-01-22T08:05:39.993Z,66.27
2023-01-22T08:08:07.104Z,66.51
2023-01-22T08:10:33.623Z,66.09
2023-01-22T08:13:01.573Z,66.61
2023-01-22T08:15:28.434Z,66.18
2023-01-22T08:17:55.317Z,65.27
2023-01-22T08:20:22.966Z,65.48
2023-01-22T08:22:49.739Z,66.27
2023-01-22T08:25:16.782Z,65.74
2023-01-22T08:27:43.564Z,65.42
2023-01-22T08:30:13.278Z,64.99
2023-01-22T08:32:41.952Z,64.50
2023-01-22T08:35:09.027Z,65.24
2023-01-22T08:37:35.943Z,64.64
2023-01-22T08:40:07.820Z,64.18
2023-01-22T08:42:34.442Z,64.40
2023-01-22T08:45:01.080Z,63.31
2023-01-22T08:47:27.748Z,63.56
2023-01-22T08:49:54.271Z,62.81
2023-01-22T08:52:22.066Z,62.01
2023-01-22T08:54:48.971Z,62.19
2023-01-22T08:57:15.689Z,61.28
2023-01-22T08:59:44.903Z,61.34
2023-01-22T09:02:14.789Z,60.13
2023-01-22T09:04:42.174Z,59.74
2023-01-22T09:07:11.176Z,59.09
2023-01-22T09:09:38.008Z,57.41
2023-01-22T09:12:05.466Z,57.20
2023-01-22T09:14:32.525Z,57.31
2023-01-22T09:16:59.155Z,56.38
2023-01-22T09:19:25.834Z,57.48
2023-01-22T09:21:52.559Z,57.04
2023-01-22T09:24:19.167Z,57.58
2023-01-22T09:26:45.729Z,58.43
2023-01-22T09:29:12.574Z,58.25
2023-01-22T09:31:39.384Z,57.75
2023-01-22T09:34:06.396Z,58.16
2023-01-22T09:36:33.332Z,57.73
2023-01-22T09:39:00.190Z,56.86
2023-01-22T09:41:29.102Z,57.86
2023-01-22T09:44:02.272Z,56.89
2023-01-22T09:46:38.390Z,56.35
2023-01-22T09:49:10.773Z,57.60
2023-01-22T09:51:37.955Z,57.55
2023-01-22T09:54:07.527Z,57.30
2023-01-22T09:56:42.651Z,56.72
2023-01-22T09:59:31.458Z,56.50
2023-01-22T10:02:01.788Z,55.77
2023-01-22T10:04:34.817Z,56.23
2023-01-22T10:07:02.929Z,56.35
2023-01-22T10:09:31.249Z,56.46
2023-01-22T10:12:00.128Z,56.32
2023-01-22T10:14:29.294Z,55.63
2023-01-22T10:16:58.378Z,54.84
2023-01-22T10:19:27.797Z,54.33
2023-01-22T10:22:06.925Z,55.10
2023-01-22T10:24:33.545Z,55.67
2023-01-22T10:27:10.007Z,55.87
2023-01-22T10:29:39.821Z,54.26
2023-01-22T10:32:26.415Z,54.15
2023-01-22T10:35:01.362Z,54.51
2023-01-22T10:37:28.317Z,54.25
2023-01-22T10:39:59.770Z,55.72
2023-01-22T10:42:27.853Z,55.88
2023-01-22T10:44:55.479Z,56.29
2023-01-22T10:47:23.458Z,56.04
2023-01-22T10:50:03.964Z,54.90
2023-01-22T10:52:36.084Z,55.42
2023-01-22T10:55:03.782Z,54.08
2023-01-22T10:57:35.696Z,54.35
2023-01-22T11:00:14.626Z,55.76
2023-01-22T11:02:43.080Z,56.27
2023-01-22T11:05:18.968Z,56.64
2023-01-22T11:07:48.015Z,56.81
2023-01-22T11:10:14.533Z,56.39
2023-01-22T11:12:43.472Z,56.22
2023-01-22T11:15:26.109Z,55.30
2023-01-22T11:18:02.960Z,54.17
2023-01-22T11:20:32.701Z,54.21
2023-01-22T11:23:16.933Z,54.29
2023-01-22T11:25:56.610Z,53.13
2023-01-22T11:28:46.015Z,51.71
2023-01-22T11:31:39.578Z,51.49
2023-01-22T11:34:25.075Z,50.70
2023-01-22T11:36:54.597Z,52.16
2023-01-22T11:39:31.800Z,51.39
2023-01-22T11:42:04.657Z,51.44
2023-01-22T11:44:43.470Z,51.68
2023-01-22T11:47:11.059Z,50.93
2023-01-22T11:49:50.435Z,50.53
2023-01-22T11:52:36.980Z,50.81
2023-01-22T11:55:13.611Z,50.54
2023-01-22T11:57:48.894Z,51.28
2023-01-22T12:00:21.745Z,51.65
2023-01-22T12:02:58.059Z,52.28
2023-01-22T12:05:30.662Z,52.62
2023-01-22T12:08:13.471Z,53.07
2023-01-22T12:10:43.220Z,52.64
2023-01-22T12:13:28.251Z,53.23
2023-01-22T12:15:54.869Z,53.05
2023-01-22T12:18:30.521Z,53.44
2023-01-22T12:21:23.949Z,54.49
2023-01-22T12:23:54.133Z,53.85
2023-01-22T12:26:23.953Z,53.01
2023-01-22T12:29:02.714Z,53.14
2023-01-22T12:31:41.573Z,53.53
2023-01-22T12:34:19.692Z,52.46
2023-01-22T12:36:47.110Z,52.46
2023-01-22T12:39:39.954Z,53.44
2023-01-22T12:42:09.620Z,54.18
2023-01-22T12:44:42.402Z,53.71
2023-01-22T12:47:21.403Z,54.40
2023-01-22T12:49:52.063Z,55.41
2023-01-22T12:52:29.500Z,53.75
2023-01-22T12:54:56.552Z,54.41
2023-01-22T12:57:24.456Z,54.44
2023-01-22T12:59:55.563Z,54.11
2023-01-22T13:02:36.145Z,54.68
2023-01-22T13:05:10.933Z,54.73
2023-01-22T13:07:39.862Z,55.73
2023-01-22T13:10:21.599Z,55.30
2023-01-22T13:12:50.068Z,56.13
2023-01-22T13:15:27.425Z,56.35
2023-01-22T13:18:07.664Z,56.01
2023-01-22T13:20:36.910Z,55.66
2023-01-22T13:23:05.279Z,54.72
2023-01-22T13:25:33.089Z,54.97
2023-01-22T13:28:00.569Z,55.74
2023-01-22T13:30:28.583Z,55.94
2023-01-22T13:33:12.029Z,56.37
2023-01-22T13:35:42.754Z,56.13
2023-01-22T13:38:20.228Z,56.12
2023-01-22T13:40:57.608Z,56.32
2023-01-22T13:43:24.642Z,56.98
2023-01-22T13:45:52.486Z,57.60
2023-01-22T13:48:20.961Z,57.78
2023-01-22T13:50:52.500Z,57.90
2023-01-22T13:53:23.836Z,58.22
2023-01-22T13:55:51.933Z,58.51
2023-01-22T13:58:49.413Z,58.05
2023-01-22T14:01:31.785Z,57.68
2023-01-22T14:04:02.896Z,58.00
2023-01-22T14:06:30.331Z,58.10
2023-01-22T14:08:58.163Z,57.23
2023-01-22T14:11:24.976Z,57.95
2023-01-22T14:13:52.772Z,57.65
2023-01-22T14:16:19.915Z,57.78
2023-01-22T14:18:46.925Z,57.43
2023-01-22T14:21:13.770Z,57.37
2023-01-22T14:23:41.845Z,57.97
2023-01-22T14:26:08.975Z,58.16
2023-01-22T14:28:36.212Z,58.21
2023-01-22T14:31:02.868Z,58.42
2023-01-22T14:33:33.117Z,58.60
2023-01-22T14:36:00.203Z,59.06
2023-01-22T14:38:27.012Z,58.01
2023-01-22T14:40:54.367Z,58.01
2023-01-22T14:43:21.460Z,57.64
2023-01-22T14:45:48.188Z,57.46
2023-01-22T14:48:16.299Z,58.48
2023-01-22T14:50:43.085Z,58.49
2023-01-22T14:53:10.322Z,58.26
2023-01-22T14:55:37.332Z,58.26
2023-01-22T14:58:04.163Z,58.60
2023-01-22T15:00:30.870Z,58.51
2023-01-22T15:02:58.189Z,58.80
2023-01-22T15:05:25.663Z,58.86
2023-01-22T15:07:52.509Z,58.22
2023-01-22T15:10:19.538Z,59.36
2023-01-22T15:12:48.318Z,59.49
2023-01-22T15:15:15.770Z,59.38
2023-01-22T15:17:42.392Z,60.24
2023-01-22T15:20:09.888Z,60.00
2023-01-22T15:22:36.721Z,59.60
2023-01-22T15:25:05.235Z,59.46
2023-01-22T15:27:32.258Z,59.75
2023-01-22T15:30:00.345Z,60.12
2023-01-22T15:32:27.171Z,59.22
2023-01-22T15:34:54.602Z,60.36
2023-01-22T15:37:21.536Z,60.09
2023-01-22T15:39:48.336Z,59.68
2023-01-22T15:42:15.510Z,60.42
2023-01-22T15:44:42.381Z,59.99
2023-01-22T15:47:11.845Z,60.06
2023-01-22T15:49:38.547Z,60.92
2023-01-22T15:52:05.551Z,60.69
2023-01-22T15:54:34.395Z,60.11
2023-01-22T15:57:02.402Z,60.30
2023-01-22T15:59:29.299Z,60.45
2023-01-22T16:01:56.498Z,60.82
2023-01-22T16:04:23.241Z,60.48
2023-01-22T16:06:59.334Z,60.46
2023-01-22T16:09:26.369Z,60.62
2023-01-22T16:11:53.628Z,61.08
2023-01-22T16:14:20.259Z,60.61
2023-01-22T16:16:48.803Z,60.14
2023-01-22T16:19:15.660Z,61.12
2023-01-22T16:21:43.488Z,60.99
2023-01-22T16:24:11.513Z,61.01
2023-01-22T16:26:38.404Z,60.80
2023-01-22T16:29:06.688Z,61.45
2023-01-22T16:31:34.781Z,61.95
2023-01-22T16:34:11.742Z,61.32
2023-01-22T16:36:41.832Z,61.38
2023-01-22T16:39:10.962Z,61.04
2023-01-22T16:41:40.855Z,61.05
2023-01-22T16:44:09.259Z,61.52
2023-01-22T16:46:38.733Z,61.90
2023-01-22T16:49:10.238Z,61.94
2023-01-22T16:51:45.547Z,61.30
2023-01-22T16:54:18.127Z,61.04
2023-01-22T16:56:45.081Z,61.08
2023-01-22T16:59:11.745Z,61.33
2023-01-22T17:01:41.298Z,61.40
2023-01-22T17:04:09.171Z,61.02
2023-01-22T17:06:46.670Z,61.54
2023-01-22T17:09:15.967Z,61.59
2023-01-22T17:11:43.667Z,61.93
2023-01-22T17:14:10.583Z,62.35
2023-01-22T17:16:37.742Z,62.03
2023-01-22T17:19:06.255Z,62.41
2023-01-22T17:21:34.527Z,62.23
2023-01-22T17:24:01.574Z,62.32
2023-01-22T17:26:29.556Z,62.72
2023-01-22T17:28:56.391Z,62.73
2023-01-22T17:31:25.613Z,62.71
2023-01-22T17:33:55.657Z,62.64
2023-01-22T17:36:28.255Z,63.24
2023-01-22T17:38:58.964Z,62.66
2023-01-22T17:41:30.976Z,62.18
2023-01-22T17:43:58.923Z,62.42
2023-01-22T17:46:26.812Z,62.05
2023-01-22T17:48:53.712Z,61.71
2023-01-22T17:51:28.010Z,62.28
2023-01-22T17:53:55.726Z,62.27
2023-01-22T17:56:27.644Z,62.52
2023-01-22T17:58:57.169Z,61.97
2023-01-22T18:01:24.774Z,62.73
2023-01-22T18:03:52.649Z,62.40
2023-01-22T18:06:22.054Z,62.98
2023-01-22T18:08:48.719Z,62.92
2023-01-22T18:11:17.011Z,63.29
2023-01-22T18:13:45.604Z,63.39
2023-01-22T18:16:17.230Z,63.38
2023-01-22T18:18:45.892Z,63.39
2023-01-22T18:21:16.756Z,63.77
2023-01-22T18:23:47.205Z,63.64
2023-01-22T18:26:15.878Z,63.02
2023-01-22T18:28:42.754Z,63.61
2023-01-22T18:31:12.115Z,63.69
2023-01-22T18:33:39.863Z,63.98
2023-01-22T18:36:09.035Z,63.77
2023-01-22T18:38:37.000Z,63.45
2023-01-22T18:41:06.201Z,63.05
2023-01-22T18:43:33.370Z,63.90
2023-01-22T18:46:24.495Z,63.54
2023-01-22T18:48:55.473Z,63.29
2023-01-22T18:51:22.423Z,62.69
2023-01-22T18:53:49.183Z,63.26
2023-01-22T18:56:15.858Z,63.81
2023-01-22T18:58:44.684Z,62.85
2023-01-22T19:01:15.775Z,62.83
2023-01-22T19:03:44.043Z,62.39
2023-01-22T19:06:16.316Z,63.14
2023-01-22T19:08:46.350Z,63.18
2023-01-22T19:11:14.077Z,63.51
2023-01-22T19:13:41.923Z,63.31
2023-01-22T19:16:11.143Z,63.69
2023-01-22T19:18:38.471Z,63.85
2023-01-22T19:21:06.852Z,63.57
2023-01-22T19:23:34.724Z,63.22
2023-01-22T19:26:05.559Z,63.44
2023-01-22T19:28:32.316Z,63.44
2023-01-22T19:30:58.993Z,63.60
2023-01-22T19:33:27.807Z,63.48
2023-01-22T19:35:55.086Z,63.04
2023-01-22T19:38:22.158Z,62.70
2023-01-22T19:40:50.075Z,63.66
2023-01-22T19:43:16.862Z,64.11
2023-01-22T19:45:43.493Z,63.25
2023-01-22T19:48:10.584Z,63.60
2023-01-22T19:50:38.917Z,64.16
2023-01-22T19:53:07.700Z,63.70
2023-01-22T19:55:38.267Z,64.29
2023-01-22T19:58:05.698Z,63.70
2023-01-22T20:00:33.000Z,63.66
2023-01-22T20:03:05.926Z,63.87
2023-01-22T20:05:40.145Z,63.80
2023-01-22T20:08:07.136Z,63.87
2023-01-22T20:10:38.051Z,64.30
2023-01-22T20:13:05.192Z,64.11
2023-01-22T20:15:36.752Z,63.50
2023-01-22T20:18:03.775Z,63.05
2023-01-22T20:20:30.831Z,62.97
2023-01-22T20:22:57.497Z,62.92
2023-01-22T20:25:25.268Z,62.59
2023-01-22T20:27:53.458Z,62.96
2023-01-22T20:30:20.850Z,62.99
2023-01-22T20:32:51.044Z,62.72
2023-01-22T20:35:21.065Z,63.24
2023-01-22T20:37:48.802Z,63.12
2023-01-22T20:40:15.608Z,62.63
2023-01-22T20:42:43.004Z,62.96
2023-01-22T20:45:10.080Z,62.92
2023-01-22T20:47:37.301Z,63.02
2023-01-22T20:50:05.940Z,62.96
2023-01-22T20:52:32.704Z,62.59
2023-01-22T20:55:02.726Z,63.54
2023-01-22T20:57:30.398Z,63.95
2023-01-22T20:59:57.239Z,63.53
2023-01-22T21:02:24.186Z,62.65
2023-01-22T21:04:51.932Z,62.87
2023-01-22T21:07:18.727Z,62.85
2023-01-22T21:09:45.332Z,63.37
2023-01-22T21:12:13.380Z,63.03
2023-01-22T21:14:39.861Z,63.39
2023-01-22T21:17:06.604Z,63.89
2023-01-22T21:19:33.634Z,63.81
2023-01-22T21:22:03.941Z,63.67
2023-01-22T21:24:31.122Z,64.11
2023-01-22T21:26:57.731Z,63.05
2023-01-22T21:29:24.558Z,63.04
2023-01-22T21:31:52.299Z,63.88
2023-01-22T21:34:20.005Z,63.69
2023-01-22T21:36:50.991Z,63.13
2023-01-22T21:39:18.757Z,64.15
2023-01-22T21:41:45.691Z,64.22
2023-01-22T21:44:32.138Z,64.31
2023-01-22T21:46:59.148Z,64.62
2023-01-22T21:49:25.862Z,64.41
2023-01-22T21:51:54.103Z,63.97
2023-01-22T21:54:26.674Z,63.56
2023-01-22T21:56:53.698Z,63.54
2023-01-22T21:59:20.691Z,63.81
2023-01-22T22:01:47.509Z,63.49
2023-01-22T22:04:15.037Z,62.65
2023-01-22T22:06:42.220Z,63.70
2023-01-22T22:09:17.308Z,63.10
2023-01-22T22:11:44.526Z,63.28
2023-01-22T22:14:11.733Z,63.90
2023-01-22T22:16:38.607Z,63.81
2023-01-22T22:19:07.725Z,63.61
2023-01-22T22:21:35.112Z,63.49
2023-01-22T22:24:09.622Z,63.53
2023-01-22T22:26:36.515Z,63.61
2023-01-22T22:29:08.818Z,63.33
2023-01-22T22:31:37.446Z,63.48
2023-01-22T22:34:06.166Z,63.57
2023-01-22T22:36:33.034Z,63.66
2023-01-22T22:39:00.349Z,63.27
2023-01-22T22:41:28.080Z,63.71
2023-01-22T22:43:55.411Z,63.43
2023-01-22T22:46:23.702Z,63.76
2023-01-22T22:48:50.853Z,64.09
2023-01-22T22:51:19.056Z,64.62
2023-01-22T22:53:48.014Z,64.09
2023-01-22T22:56:15.293Z,63.73
2023-01-22T22:58:42.674Z,64.38
2023-01-22T23:01:16.046Z,64.56
2023-01-22T23:03:44.192Z,64.97
2023-01-22T23:06:12.207Z,65.27
2023-01-22T23:08:39.859Z,65.11
2023-01-22T23:11:19.658Z,64.99
2023-01-22T23:13:49.211Z,65.24
2023-01-22T23:16:18.219Z,65.52
2023-01-22T23:18:45.578Z,65.75
2023-01-22T23:21:14.399Z,64.95
2023-01-22T23:23:41.353Z,65.14
2023-01-22T23:26:10.228Z,66.06
2023-01-22T23:28:37.211Z,65.99
2023-01-22T23:31:06.382Z,65.34
2023-01-22T23:33:33.584Z,65.75
2023-01-22T23:36:05.396Z,65.16
2023-01-22T23:38:32.157Z,65.73
2023-01-22T23:40:59.970Z,64.82
2023-01-22T23:43:27.893Z,65.21
2023-01-22T23:45:55.006Z,65.76
2023-01-22T23:48:22.016Z,65.09
2023-01-22T23:50:49.536Z,65.65
2023-01-22T23:53:16.891Z,66.20
2023-01-22T23:55:43.872Z,65.52
2023-01-22T23:58:10.820Z,65.87
